createdAt,value
2023-01-12T00:01:40.767Z,9.75
2023-01-12T00:04:08.136Z,7.50
2023-01-12T00:06:35.481Z,6.43
2023-01-12T00:09:03.918Z,10.50
2023-01-12T00:11:30.839Z,8.27
2023-01-12T00:13:58.083Z,8.32
2023-01-12T00:16:34.751Z,10.40
2023-01-12T00:19:15.485Z,10.57
2023-01-12T00:21:50.169Z,11.80
2023-01-12T00:24:18.583Z,12.00
2023-01-12T00:26:47.031Z,7.35
2023-01-12T00:29:14.231Z,14.07
2023-01-12T00:31:41.036Z,9.07
2023-01-12T00:34:07.768Z,7.97
2023-01-12T00:36:34.632Z,15.93
2023-01-12T00:39:01.447Z,10.90
2023-01-12T00:41:46.690Z,9.73
2023-01-12T00:44:31.569Z,10.25
2023-01-12T00:46:58.195Z,10.38
2023-01-12T00:49:24.783Z,13.02
2023-01-12T00:51:51.424Z,14.88
2023-01-12T00:54:18.101Z,13.07
2023-01-12T00:56:45.072Z,13.70
2023-01-12T00:59:11.646Z,13.82
2023-01-12T01:01:38.493Z,14.88
2023-01-12T01:04:05.137Z,13.00
2023-01-12T01:06:31.693Z,12.38
2023-01-12T01:08:58.612Z,21.80
2023-01-12T01:11:25.167Z,12.57
2023-01-12T01:13:53.688Z,12.85
2023-01-12T01:16:20.268Z,10.30
2023-01-12T01:18:46.905Z,12.13
2023-01-12T01:21:14.358Z,14.45
2023-01-12T01:23:42.373Z,11.75
2023-01-12T01:26:14.242Z,8.48
2023-01-12T01:28:41.650Z,13.40
2023-01-12T01:31:12.016Z,17.05
2023-01-12T01:33:38.921Z,9.63
2023-01-12T01:36:05.714Z,14.85
2023-01-12T01:38:33.074Z,11.23
2023-01-12T01:41:00.380Z,13.70
2023-01-12T01:43:28.546Z,11.70
2023-01-12T01:46:08.123Z,13.00
2023-01-12T01:48:37.229Z,14.13
2023-01-12T01:51:08.814Z,12.13
2023-01-12T01:53:37.958Z,16.60
2023-01-12T01:56:14.499Z,11.23
2023-01-12T01:58:47.961Z,16.55
2023-01-12T02:01:14.616Z,11.35
2023-01-12T02:03:41.660Z,13.55
2023-01-12T02:06:08.953Z,11.55
2023-01-12T02:08:46.629Z,12.70
2023-01-12T02:11:32.373Z,14.35
2023-01-12T02:14:25.051Z,16.60
2023-01-12T02:17:15.792Z,18.92
2023-01-12T02:20:19.566Z,11.00
2023-01-12T02:23:17.635Z,11.52
2023-01-12T02:26:00.794Z,15.82
2023-01-12T02:28:56.041Z,12.85
2023-01-12T02:32:06.548Z,13.35
2023-01-12T02:35:17.530Z,12.43
2023-01-12T02:38:01.446Z,16.35
2023-01-12T02:40:49.602Z,18.83
2023-01-12T02:43:28.494Z,19.70
2023-01-12T02:46:11.611Z,14.32
2023-01-12T02:48:40.791Z,11.77
2023-01-12T02:51:15.111Z,16.63
2023-01-12T02:53:51.457Z,15.60
2023-01-12T02:56:27.661Z,14.65
2023-01-12T02:58:59.132Z,14.07
2023-01-12T03:01:28.540Z,17.13
2023-01-12T03:04:01.057Z,16.73
2023-01-12T03:09:05.104Z,15.57
2023-01-12T03:11:31.728Z,13.43
2023-01-12T03:14:01.693Z,14.15
2023-01-12T03:16:35.323Z,13.77
2023-01-12T03:19:09.377Z,23.58
2023-01-12T03:21:40.543Z,17.30
2023-01-12T03:24:12.903Z,18.90
2023-01-12T03:26:46.992Z,14.18
2023-01-12T03:29:27.700Z,13.32
2023-01-12T03:31:55.869Z,19.02
2023-01-12T03:34:23.254Z,15.88
2023-01-12T03:36:57.849Z,12.48
2023-01-12T03:40:05.264Z,10.68
2023-01-12T03:42:47.921Z,17.23
2023-01-12T03:45:17.511Z,12.50
2023-01-12T03:47:44.564Z,15.25
2023-01-12T03:50:22.155Z,17.27
2023-01-12T03:52:50.549Z,13.85
2023-01-12T03:55:22.795Z,11.50
2023-01-12T03:57:51.008Z,13.52
2023-01-12T04:00:20.354Z,15.20
2023-01-12T04:02:46.845Z,22.25
2023-01-12T04:05:15.158Z,12.63
2023-01-12T04:07:41.684Z,13.02
2023-01-12T04:10:08.923Z,11.95
2023-01-12T04:12:35.480Z,8.88
2023-01-12T04:15:02.067Z,12.95
2023-01-12T04:17:29.206Z,16.05
2023-01-12T04:19:55.892Z,10.77
2023-01-12T04:22:40.839Z,14.70
2023-01-12T04:25:09.668Z,10.70
2023-01-12T04:27:36.672Z,14.25
2023-01-12T04:30:04.257Z,13.13
2023-01-12T04:32:30.740Z,14.52
2023-01-12T04:34:57.325Z,12.15
2023-01-12T04:37:23.847Z,14.07
2023-01-12T04:39:50.378Z,9.98
2023-01-12T04:42:35.656Z,11.68
2023-01-12T04:45:02.171Z,7.65
2023-01-12T04:47:28.756Z,11.40
2023-01-12T04:49:55.434Z,14.98
2023-01-12T04:52:21.990Z,12.18
2023-01-12T04:54:48.523Z,13.15
2023-01-12T04:57:15.139Z,15.13
2023-01-12T04:59:41.688Z,12.02
2023-01-12T05:02:08.325Z,9.27
2023-01-12T05:04:35.002Z,10.05
2023-01-12T05:07:01.509Z,12.38
2023-01-12T05:09:46.824Z,8.45
2023-01-12T05:12:13.330Z,11.40
2023-01-12T05:14:39.866Z,8.55
2023-01-12T05:17:06.432Z,10.38
2023-01-12T05:19:32.993Z,10.95
2023-01-12T05:21:59.622Z,9.65
2023-01-12T05:24:26.102Z,6.22
2023-01-12T05:26:52.641Z,8.63
2023-01-12T05:29:19.189Z,6.88
2023-01-12T05:31:45.809Z,8.77
2023-01-12T05:34:13.825Z,9.23
2023-01-12T05:36:40.417Z,9.60
2023-01-12T05:39:06.921Z,7.03
2023-01-12T05:41:33.444Z,8.10
2023-01-12T05:44:00.008Z,6.90
2023-01-12T05:46:30.094Z,8.63
2023-01-12T05:48:57.946Z,6.90
2023-01-12T05:51:27.068Z,9.77
2023-01-12T05:53:55.181Z,7.97
2023-01-12T05:56:27.527Z,7.70
2023-01-12T05:58:58.342Z,7.57
2023-01-12T06:01:25.889Z,11.07
2023-01-12T06:03:54.589Z,10.65
2023-01-12T06:06:23.003Z,9.27
2023-01-12T06:08:52.165Z,7.43
2023-01-12T06:11:37.603Z,4.25
2023-01-12T06:14:04.953Z,7.57
2023-01-12T06:16:31.752Z,10.10
2023-01-12T06:18:58.370Z,7.88
2023-01-12T06:21:25.632Z,6.70
2023-01-12T06:23:52.210Z,9.20
2023-01-12T06:26:18.898Z,6.22
2023-01-12T06:28:45.468Z,7.80
2023-01-12T06:31:13.623Z,5.90
2023-01-12T06:33:41.359Z,6.90
2023-01-12T06:36:10.133Z,6.05
2023-01-12T06:38:37.318Z,7.10
2023-01-12T06:41:05.964Z,7.95
2023-01-12T06:43:32.533Z,5.20
2023-01-12T06:45:59.669Z,4.63
2023-01-12T06:48:26.521Z,4.13
2023-01-12T06:51:05.952Z,6.13
2023-01-12T06:53:32.401Z,5.13
2023-01-12T06:55:59.989Z,6.60
2023-01-12T06:58:26.487Z,4.40
2023-01-12T07:00:53.061Z,3.35
2023-01-12T07:03:20.426Z,4.95
2023-01-12T07:05:47.015Z,5.07
2023-01-12T07:08:18.962Z,4.93
2023-01-12T07:10:46.552Z,2.83
2023-01-12T07:13:13.207Z,2.47
2023-01-12T07:15:39.778Z,5.07
2023-01-12T07:18:06.340Z,2.40
2023-01-12T07:20:33.263Z,3.30
2023-01-12T07:22:59.932Z,3.55
2023-01-12T07:25:26.752Z,6.03
2023-01-12T07:27:57.909Z,2.15
2023-01-12T07:30:25.883Z,4.53
2023-01-12T07:32:52.770Z,3.65
2023-01-12T07:35:19.432Z,3.88
2023-01-12T07:37:55.981Z,3.95
2023-01-12T07:40:22.610Z,2.65
2023-01-12T07:42:49.121Z,4.47
2023-01-12T07:45:15.703Z,2.97
2023-01-12T07:47:42.222Z,5.90
2023-01-12T07:50:10.718Z,3.92
2023-01-12T07:52:38.137Z,4.47
2023-01-12T07:55:04.952Z,4.85
2023-01-12T07:57:31.471Z,3.15
2023-01-12T07:59:57.947Z,3.20
2023-01-12T08:02:24.499Z,4.03
2023-01-12T08:04:51.051Z,5.93
2023-01-12T08:07:17.628Z,3.72
2023-01-12T08:09:44.250Z,1.75
2023-01-12T08:12:10.737Z,3.97
2023-01-12T08:14:38.998Z,4.35
2023-01-12T08:17:15.754Z,3.38
2023-01-12T08:19:49.042Z,3.28
2023-01-12T08:22:20.998Z,3.65
2023-01-12T08:24:59.782Z,1.98
2023-01-12T08:27:30.475Z,6.47
2023-01-12T08:29:59.977Z,4.22
2023-01-12T08:32:30.363Z,3.58
2023-01-12T08:35:01.728Z,2.67
2023-01-12T08:37:29.519Z,4.37
2023-01-12T08:39:56.071Z,2.03
2023-01-12T08:42:26.398Z,6.15
2023-01-12T08:44:54.758Z,4.07
2023-01-12T08:47:28.206Z,2.78
2023-01-12T08:49:55.304Z,3.03
2023-01-12T08:52:22.005Z,2.35
2023-01-12T08:54:49.437Z,3.60
2023-01-12T08:57:19.838Z,2.33
2023-01-12T08:59:46.345Z,1.83
2023-01-12T09:02:13.872Z,4.45
2023-01-12T09:04:40.825Z,2.33
2023-01-12T09:07:09.494Z,1.70
2023-01-12T09:09:36.583Z,3.20
2023-01-12T09:12:03.807Z,2.88
2023-01-12T09:14:30.333Z,2.75
2023-01-12T09:16:57.009Z,4.38
2023-01-12T09:19:23.651Z,2.08
2023-01-12T09:21:50.232Z,2.80
2023-01-12T09:24:16.711Z,3.88
2023-01-12T09:26:45.506Z,2.70
2023-01-12T09:29:13.285Z,3.13
2023-01-12T09:31:42.981Z,1.45
2023-01-12T09:34:09.614Z,1.58
2023-01-12T09:36:37.607Z,1.20
2023-01-12T09:39:09.897Z,0.95
2023-01-12T09:42:03.034Z,1.58
2023-01-12T09:44:59.140Z,2.58
2023-01-12T09:47:44.683Z,0.85
2023-01-12T09:50:20.079Z,2.53
2023-01-12T09:52:55.819Z,2.35
2023-01-12T09:55:25.955Z,2.20
2023-01-12T09:58:01.083Z,1.13
2023-01-12T10:00:28.184Z,1.95
2023-01-12T10:03:11.900Z,2.08
2023-01-12T10:05:53.130Z,2.03
2023-01-12T10:08:40.080Z,2.15
2023-01-12T10:11:06.747Z,0.98
2023-01-12T10:14:01.931Z,1.38
2023-01-12T10:16:51.711Z,2.47
2023-01-12T10:19:54.987Z,1.95
2023-01-12T10:25:29.341Z,0.73
2023-01-12T10:27:59.099Z,0.60
2023-01-12T10:30:34.750Z,1.52
2023-01-12T10:33:15.940Z,2.08
2023-01-12T10:36:10.144Z,1.77
2023-01-12T10:38:56.598Z,1.75
2023-01-12T10:41:37.831Z,2.97
2023-01-12T10:44:14.781Z,0.50
2023-01-12T10:46:41.862Z,0.98
2023-01-12T10:49:26.921Z,4.13
2023-01-12T10:51:59.841Z,2.88
2023-01-12T10:54:28.046Z,0.77
2023-01-12T10:57:19.850Z,2.25
2023-01-12T10:59:55.649Z,1.20
2023-01-12T11:02:24.112Z,0.77
2023-01-12T11:04:52.387Z,2.03
2023-01-12T11:07:28.994Z,0.50
2023-01-12T11:10:16.456Z,1.38
2023-01-12T11:12:58.864Z,1.90
2023-01-12T11:15:26.469Z,0.55
2023-01-12T11:17:59.068Z,3.03
2023-01-12T11:23:03.050Z,0.90
2023-01-12T11:25:36.134Z,0.85
2023-01-12T11:28:14.350Z,1.13
2023-01-12T11:30:47.959Z,1.58
2023-01-12T11:33:23.030Z,0.50
2023-01-12T11:36:05.212Z,0.95
2023-01-12T11:38:38.972Z,0.75
2023-01-12T11:41:10.414Z,0.75
2023-01-12T11:43:49.121Z,1.13
2023-01-12T11:46:29.035Z,0.82
2023-01-12T11:49:39.340Z,0.75
2023-01-12T11:52:10.084Z,0.57
2023-01-12T11:54:38.253Z,1.30
2023-01-12T11:57:33.128Z,0.82
2023-01-12T12:00:18.335Z,0.52
2023-01-12T12:03:03.021Z,0.95
2023-01-12T12:05:58.493Z,1.58
2023-01-12T12:08:34.050Z,1.13
2023-01-12T12:11:09.429Z,0.60
2023-01-12T12:13:55.052Z,1.20
2023-01-12T12:16:37.492Z,0.65
2023-01-12T12:19:22.289Z,0.73
2023-01-12T12:22:00.917Z,2.45
2023-01-12T12:25:01.589Z,0.40
2023-01-12T12:27:52.568Z,1.27
2023-01-12T12:30:38.464Z,0.60
2023-01-12T12:33:30.091Z,0.50
2023-01-12T12:36:16.685Z,0.73
2023-01-12T12:38:58.334Z,0.50
2023-01-12T12:41:55.872Z,1.27
2023-01-12T12:44:51.599Z,0.77
2023-01-12T12:47:42.158Z,0.88
2023-01-12T12:50:23.303Z,0.80
2023-01-12T12:53:03.335Z,1.38
2023-01-12T12:55:31.022Z,0.70
2023-01-12T12:58:06.033Z,0.80
2023-01-12T13:00:42.533Z,1.23
2023-01-12T13:03:10.102Z,2.45
2023-01-12T13:05:43.084Z,1.27
2023-01-12T13:08:25.733Z,0.80
2023-01-12T13:10:58.657Z,2.03
2023-01-12T13:13:56.184Z,1.75
2023-01-12T13:16:22.679Z,2.72
2023-01-12T13:18:49.524Z,0.65
2023-01-12T13:21:57.703Z,2.58
2023-01-12T13:24:40.454Z,1.10
2023-01-12T13:27:44.212Z,0.75
2023-01-12T13:30:29.025Z,2.72
2023-01-12T13:33:17.340Z,0.77
2023-01-12T13:35:46.895Z,2.40
2023-01-12T13:38:36.290Z,2.13
2023-01-12T13:41:15.051Z,0.73
2023-01-12T13:43:49.722Z,1.50
2023-01-12T13:46:20.212Z,1.23
2023-01-12T13:48:49.812Z,1.58
2023-01-12T13:51:25.410Z,2.42
2023-01-12T13:54:04.417Z,2.83
2023-01-12T13:56:31.757Z,0.60
2023-01-12T13:59:02.856Z,2.13
2023-01-12T14:01:39.476Z,0.80
2023-01-12T14:04:31.661Z,1.50
2023-01-12T14:07:42.227Z,0.87
2023-01-12T14:10:23.879Z,1.42
2023-01-12T14:13:03.858Z,1.80
2023-01-12T14:16:00.280Z,1.48
2023-01-12T14:18:29.703Z,1.00
2023-01-12T14:20:58.311Z,1.52
2023-01-12T14:23:31.280Z,0.82
2023-01-12T14:26:13.287Z,1.67
2023-01-12T14:28:51.501Z,1.52
2023-01-12T14:31:30.508Z,1.33
2023-01-12T14:34:00.879Z,3.63
2023-01-12T14:36:35.909Z,2.95
2023-01-12T14:39:07.848Z,2.15
2023-01-12T14:41:53.040Z,2.15
2023-01-12T14:44:41.927Z,0.80
2023-01-12T14:47:09.590Z,1.05
2023-01-12T14:49:38.255Z,1.88
2023-01-12T14:52:16.802Z,0.73
2023-01-12T14:54:43.524Z,0.50
2023-01-12T14:57:33.978Z,0.80
2023-01-12T15:00:02.702Z,1.55
2023-01-12T15:02:35.102Z,2.78
2023-01-12T15:05:10.649Z,2.40
2023-01-12T15:07:52.322Z,2.10
2023-01-12T15:10:18.798Z,0.93
2023-01-12T15:12:52.585Z,2.75
2023-01-12T15:15:28.010Z,0.70
2023-01-12T15:18:14.296Z,1.52
2023-01-12T15:21:02.354Z,0.98
2023-01-12T15:23:53.468Z,1.77
2023-01-12T15:26:21.859Z,1.52
2023-01-12T15:28:49.161Z,2.58
2023-01-12T15:31:23.016Z,1.00
2023-01-12T15:33:49.816Z,1.23
2023-01-12T15:36:16.417Z,0.75
2023-01-12T15:38:42.918Z,1.42
2023-01-12T15:41:49.008Z,1.67
2023-01-12T15:44:18.011Z,1.10
2023-01-12T15:46:44.710Z,2.30
2023-01-12T15:49:13.376Z,0.80
2023-01-12T15:51:41.502Z,0.80
2023-01-12T15:54:11.844Z,1.73
2023-01-12T15:56:38.368Z,1.63
2023-01-12T15:59:05.583Z,1.35
2023-01-12T16:01:41.392Z,1.63
2023-01-12T16:04:42.112Z,1.65
2023-01-12T16:07:09.030Z,6.13
2023-01-12T16:09:35.714Z,1.95
2023-01-12T16:12:02.194Z,2.08
2023-01-12T16:14:28.694Z,2.85
2023-01-12T16:16:55.206Z,6.18
2023-01-12T16:19:22.288Z,1.88
2023-01-12T16:21:48.933Z,2.25
2023-01-12T16:24:15.597Z,1.95
2023-01-12T16:26:42.211Z,1.55
2023-01-12T16:29:09.013Z,1.35
2023-01-12T16:31:38.099Z,4.05
2023-01-12T16:34:05.684Z,3.65
2023-01-12T16:36:32.183Z,2.63
2023-01-12T16:38:58.779Z,3.10
2023-01-12T16:41:25.329Z,6.15
2023-01-12T16:43:52.067Z,1.35
2023-01-12T16:46:18.802Z,2.13
2023-01-12T16:48:45.552Z,2.47
2023-01-12T16:51:14.236Z,1.30
2023-01-12T16:53:41.659Z,2.92
2023-01-12T16:56:13.709Z,5.32
2023-01-12T16:58:42.504Z,3.35
2023-01-12T17:01:13.575Z,4.47
2023-01-12T17:03:41.650Z,2.80
2023-01-12T17:06:14.695Z,2.97
2023-01-12T17:08:41.772Z,4.05
2023-01-12T17:11:13.640Z,2.67
2023-01-12T17:13:40.634Z,3.45
2023-01-12T17:16:09.437Z,2.97
2023-01-12T17:18:37.787Z,3.35
2023-01-12T17:21:07.787Z,5.38
2023-01-12T17:23:34.687Z,2.78
2023-01-12T17:26:03.362Z,2.38
2023-01-12T17:28:30.358Z,2.25
2023-01-12T17:30:58.101Z,2.60
2023-01-12T17:33:24.931Z,1.80
2023-01-12T17:35:51.731Z,2.38
2023-01-12T17:38:18.400Z,2.45
2023-01-12T17:40:44.949Z,4.47
2023-01-12T17:43:14.588Z,3.50
2023-01-12T17:45:42.754Z,2.47
2023-01-12T17:48:13.004Z,4.95
2023-01-12T17:50:40.481Z,2.60
2023-01-12T17:53:09.293Z,5.40
2023-01-12T17:55:47.482Z,2.60
2023-01-12T17:58:17.401Z,2.22
2023-01-12T18:00:44.184Z,3.15
2023-01-12T18:03:10.693Z,1.95
2023-01-12T18:05:37.250Z,4.82
2023-01-12T18:08:03.929Z,1.67
2023-01-12T18:10:30.463Z,3.05
2023-01-12T18:12:57.059Z,1.95
2023-01-12T18:15:23.957Z,6.07
2023-01-12T18:17:50.552Z,2.20
2023-01-12T18:20:17.082Z,2.90
2023-01-12T18:22:44.565Z,2.85
2023-01-12T18:25:11.180Z,2.72
2023-01-12T18:27:37.815Z,3.08
2023-01-12T18:30:04.959Z,4.38
2023-01-12T18:32:31.456Z,3.92
2023-01-12T18:34:58.455Z,2.20
2023-01-12T18:37:25.040Z,2.38
2023-01-12T18:39:51.630Z,4.07
2023-01-12T18:42:36.956Z,4.07
2023-01-12T18:45:04.634Z,5.93
2023-01-12T18:47:49.970Z,3.30
2023-01-12T18:50:35.527Z,3.45
2023-01-12T18:53:20.794Z,3.40
2023-01-12T18:55:48.216Z,4.72
2023-01-12T18:58:14.867Z,4.35
2023-01-12T19:00:41.603Z,2.38
2023-01-12T19:03:08.240Z,2.53
2023-01-12T19:05:41.941Z,2.40
2023-01-12T19:08:27.221Z,2.70
2023-01-12T19:10:54.257Z,3.35
2023-01-12T19:13:40.176Z,2.17
2023-01-12T19:16:25.913Z,2.80
2023-01-12T19:18:53.197Z,2.95
2023-01-12T19:21:38.376Z,4.22
2023-01-12T19:24:23.491Z,2.80
2023-01-12T19:27:08.791Z,2.15
2023-01-12T19:29:35.439Z,5.28
2023-01-12T19:32:02.382Z,5.20
2023-01-12T19:34:28.927Z,2.50
2023-01-12T19:36:55.451Z,4.13
2023-01-12T19:39:34.318Z,2.53
2023-01-12T19:42:20.489Z,2.40
2023-01-12T19:44:47.147Z,2.00
2023-01-12T19:47:13.723Z,2.40
2023-01-12T19:49:40.267Z,3.60
2023-01-12T19:52:06.761Z,5.65
2023-01-12T19:54:33.412Z,3.20
2023-01-12T19:56:59.993Z,3.15
2023-01-12T19:59:27.668Z,2.97
2023-01-12T20:01:54.959Z,3.40
2023-01-12T20:04:21.535Z,4.57
2023-01-12T20:06:48.029Z,2.88
2023-01-12T20:09:14.582Z,5.55
2023-01-12T20:11:41.146Z,3.08
2023-01-12T20:14:07.664Z,2.42
2023-01-12T20:16:34.171Z,6.10
2023-01-12T20:19:00.891Z,3.25
2023-01-12T20:21:27.578Z,4.53
2023-01-12T20:23:54.325Z,3.42
2023-01-12T20:26:20.957Z,2.38
2023-01-12T20:28:47.473Z,3.35
2023-01-12T20:31:16.114Z,3.28
2023-01-12T20:33:42.796Z,3.83
2023-01-12T20:36:14.402Z,2.58
2023-01-12T20:38:41.902Z,5.15
2023-01-12T20:41:10.017Z,3.65
2023-01-12T20:43:36.686Z,2.78
2023-01-12T20:46:07.906Z,2.67
2023-01-12T20:48:34.557Z,5.88
2023-01-12T20:51:03.025Z,6.00
2023-01-12T20:53:31.552Z,2.40
2023-01-12T20:55:58.376Z,3.13
2023-01-12T20:58:26.078Z,4.43
2023-01-12T21:00:53.320Z,3.38
2023-01-12T21:03:20.125Z,2.75
2023-01-12T21:05:48.711Z,3.95
2023-01-12T21:08:16.728Z,2.97
2023-01-12T21:10:52.205Z,5.35
2023-01-12T21:13:19.965Z,2.50
2023-01-12T21:15:46.962Z,2.00
2023-01-12T21:18:13.590Z,2.55
2023-01-12T21:20:42.078Z,3.08
2023-01-12T21:23:09.075Z,1.40
2023-01-12T21:25:41.293Z,1.52
2023-01-12T21:28:07.852Z,4.20
2023-01-12T21:30:35.065Z,3.95
2023-01-12T21:33:01.606Z,2.58
2023-01-12T21:35:28.157Z,2.72
2023-01-12T21:37:55.748Z,3.30
2023-01-12T21:40:22.503Z,3.53
2023-01-12T21:43:08.389Z,3.45
2023-01-12T21:45:43.597Z,3.28
2023-01-12T21:48:11.459Z,3.15
2023-01-12T21:50:38.415Z,2.72
2023-01-12T21:53:06.417Z,5.28
2023-01-12T21:55:33.913Z,1.40
2023-01-12T21:58:01.924Z,2.97
2023-01-12T22:00:28.666Z,1.75
2023-01-12T22:02:56.014Z,4.55
2023-01-12T22:05:23.567Z,2.05
2023-01-12T22:07:51.275Z,2.85
2023-01-12T22:10:21.882Z,2.67
2023-01-12T22:12:51.129Z,2.90
2023-01-12T22:15:18.175Z,1.85
2023-01-12T22:17:46.205Z,2.28
2023-01-12T22:20:14.160Z,3.20
2023-01-12T22:22:41.191Z,4.28
2023-01-12T22:25:09.857Z,2.33
2023-01-12T22:27:37.117Z,2.00
2023-01-12T22:30:05.891Z,3.85
2023-01-12T22:32:33.309Z,4.32
2023-01-12T22:34:59.921Z,4.53
2023-01-12T22:37:30.940Z,4.40
2023-01-12T22:39:57.588Z,3.40
2023-01-12T22:42:47.061Z,3.03
2023-01-12T22:45:14.144Z,2.65
2023-01-12T22:47:48.064Z,2.58
2023-01-12T22:50:16.327Z,3.60
2023-01-12T22:52:42.884Z,3.47
2023-01-12T22:55:09.584Z,2.60
2023-01-12T22:57:37.170Z,3.50
2023-01-12T23:00:04.962Z,5.00
2023-01-12T23:02:50.052Z,5.13
2023-01-12T23:05:16.728Z,2.47
2023-01-12T23:07:43.252Z,4.93
2023-01-12T23:10:10.938Z,8.15
2023-01-12T23:12:37.511Z,5.45
2023-01-12T23:15:04.442Z,6.93
2023-01-12T23:17:32.112Z,3.08
2023-01-12T23:19:58.973Z,4.95
2023-01-12T23:22:25.490Z,6.85
2023-01-12T23:24:51.974Z,8.95
2023-01-12T23:27:18.511Z,7.13
2023-01-12T23:29:46.899Z,4.63
2023-01-12T23:32:13.427Z,5.18
2023-01-12T23:34:39.988Z,4.38
2023-01-12T23:37:06.489Z,6.25
2023-01-12T23:39:33.110Z,6.68
2023-01-12T23:41:59.685Z,8.48
2023-01-12T23:44:26.194Z,8.43
2023-01-12T23:46:54.703Z,7.18
2023-01-12T23:49:21.182Z,8.75
2023-01-12T23:51:47.766Z,8.30
2023-01-12T23:54:17.372Z,9.77
2023-01-12T23:56:43.907Z,10.95
2023-01-12T23:59:10.416Z,6.15
